Time;durP1;ratioP1;P1;durP2;ratioP2;P2;SDS_P1;SDS_P2;PMS_P1;PMS_P2;Temp;Humidity;BMP_temperature;BMP_pressure;BME280_temperature;BME280_humidity;BME280_pressure;Samples;Min_cycle;Max_cycle;Signal;HPM_P1;HPM_P2
2021/10/16 00:01:36;;;;;;;7.53;2.90;;;;;;;;;;5036317;28;20197;-88
2021/10/16 00:04:03;;;;;;;14.43;3.83;;;8.10;99.90;;;;;;5034965;28;20440;-86
2021/10/16 00:06:30;;;;;;;5.25;2.17;;;;;;;;;;5029066;28;20611;-87
2021/10/16 00:08:56;;;;;;;19.63;3.60;;;8.00;99.90;;;;;;5032014;28;20221;-87
2021/10/16 00:11:23;;;;;;;7.57;2.53;;;;;;;;;;5032614;28;20448;-87
2021/10/16 00:13:52;;;;;;;6.18;2.67;;;;;;;;;;5036087;28;20205;-87
2021/10/16 00:16:19;;;;;;;10.00;3.42;;;;;;;;;;5027185;28;20209;-87
2021/10/16 00:18:46;;;;;;;8.82;2.90;;;;;;;;;;5025166;28;20213;-87
2021/10/16 00:21:13;;;;;;;11.57;2.72;;;;;;;;;;5033626;28;20189;-87
2021/10/16 00:23:41;;;;;;;7.33;2.53;;;;;;;;;;5024580;28;20255;-87
2021/10/16 00:26:08;;;;;;;17.20;3.23;;;;;;;;;;5025947;28;20462;-87
2021/10/16 00:28:35;;;;;;;16.70;2.93;;;;;;;;;;5023629;28;20466;-88
2021/10/16 00:31:04;;;;;;;10.90;5.07;;;;;;;;;;5023192;28;20431;-87
2021/10/16 00:33:31;;;;;;;7.43;3.10;;;;;;;;;;5022280;28;20201;-87
2021/10/16 00:35:58;;;;;;;6.43;3.63;;;8.00;99.90;;;;;;5023084;28;20201;-87
2021/10/16 00:38:24;;;;;;;11.00;3.27;;;7.90;99.90;;;;;;5024946;28;20544;-88
2021/10/16 00:40:51;;;;;;;7.70;2.67;;;7.90;99.90;;;;;;5022590;28;20476;-88
2021/10/16 00:43:17;;;;;;;6.57;2.80;;;7.80;99.90;;;;;;5023082;28;20216;-88
2021/10/16 00:45:44;;;;;;;10.02;3.20;;;7.80;99.90;;;;;;5022658;28;20197;-88
2021/10/16 00:48:12;;;;;;;13.23;3.15;;;7.80;99.90;;;;;;5021286;28;20225;-87
2021/10/16 00:50:39;;;;;;;8.13;2.80;;;7.80;99.90;;;;;;5021059;28;20279;-88
2021/10/16 00:53:05;;;;;;;8.43;2.92;;;8.00;99.90;;;;;;5030418;28;20467;-87
2021/10/16 00:55:32;;;;;;;11.63;3.10;;;7.50;99.90;;;;;;5031270;28;20198;-86
2021/10/16 00:58:00;;;;;;;10.45;3.40;;;7.80;99.90;;;;;;5022780;28;20231;-86
2021/10/16 01:00:27;;;;;;;8.18;2.72;;;;;;;;;;5022260;28;20233;-86
2021/10/16 01:02:53;;;;;;;6.17;2.70;;;7.80;99.90;;;;;;5023016;28;20287;-87
2021/10/16 01:05:21;;;;;;;9.90;2.72;;;7.70;99.90;;;;;;5024191;28;20435;-86
2021/10/16 01:07:48;;;;;;;11.48;2.70;;;;;;;;;;5023210;28;20236;-86
2021/10/16 01:10:15;;;;;;;9.63;2.78;;;;;;;;;;5022047;28;20712;-86
2021/10/16 01:12:44;;;;;;;12.68;3.70;;;7.70;99.90;;;;;;5031686;28;20188;-85
2021/10/16 01:15:13;;;;;;;14.10;4.78;;;7.70;99.90;;;;;;5032034;28;20244;-88
2021/10/16 01:17:41;;;;;;;11.57;6.80;;;;;;;;;;5023952;28;20204;-88
2021/10/16 01:20:10;;;;;;;12.23;4.00;;;7.70;99.90;;;;;;5022999;28;20279;-86
2021/10/16 01:22:40;;;;;;;9.53;3.07;;;7.60;99.90;;;;;;5022811;28;20228;-86
2021/10/16 01:25:09;;;;;;;6.93;3.28;;;7.90;99.90;;;;;;5023214;28;20753;-86
2021/10/16 01:27:38;;;;;;;6.72;2.35;;;7.70;99.90;;;;;;5022368;28;20256;-86
2021/10/16 01:30:06;;;;;;;8.07;3.00;;;7.60;99.90;;;;;;5023011;28;20251;-86
2021/10/16 01:32:34;;;;;;;6.27;2.73;;;7.40;99.90;;;;;;5022357;28;20209;-87
2021/10/16 01:35:01;;;;;;;16.25;3.72;;;;;;;;;;5021063;28;20407;-87
2021/10/16 01:37:28;;;;;;;8.30;2.22;;;;;;;;;;5023038;28;20208;-87
2021/10/16 01:39:56;;;;;;;7.25;2.50;;;7.60;99.90;;;;;;5021217;28;20267;-88
2021/10/16 01:42:23;;;;;;;7.90;3.13;;;;;;;;;;5032358;28;20193;-87
2021/10/16 01:44:50;;;;;;;8.27;2.67;;;;;;;;;;5034780;28;20640;-87
2021/10/16 01:47:17;;;;;;;9.82;3.47;;;7.30;99.90;;;;;;5036573;28;20205;-87
2021/10/16 01:49:44;;;;;;;12.25;3.22;;;;;;;;;;5033163;28;20228;-86
2021/10/16 01:52:11;;;;;;;9.40;2.53;;;;;;;;;;5024777;28;20644;-86
2021/10/16 01:54:38;;;;;;;5.78;2.92;;;7.50;99.90;;;;;;5036223;28;20185;-89
2021/10/16 01:57:06;;;;;;;9.55;3.30;;;7.40;99.90;;;;;;5038531;28;20215;-90
2021/10/16 01:59:34;;;;;;;10.82;2.45;;;;;;;;;;5038020;28;20223;-89
2021/10/16 02:02:01;;;;;;;6.85;2.47;;;7.50;99.90;;;;;;5036521;28;20241;-87
2021/10/16 02:04:28;;;;;;;8.63;3.45;;;7.50;99.90;;;;;;5017167;28;20205;-87
2021/10/16 02:06:55;;;;;;;5.70;1.80;;;;;;;;;;5023064;28;20216;-88
2021/10/16 02:09:21;;;;;;;4.22;3.17;;;7.50;99.90;;;;;;5021826;28;20229;-88
2021/10/16 02:11:48;;;;;;;12.77;4.65;;;7.20;99.90;;;;;;5023243;28;20205;-87
2021/10/16 02:14:16;;;;;;;8.68;3.20;;;7.40;99.90;;;;;;5022301;28;20216;-88
2021/10/16 02:16:43;;;;;;;5.65;2.63;;;;;;;;;;5022656;28;20216;-87
2021/10/16 02:19:09;;;;;;;3.88;2.28;;;7.40;99.90;;;;;;5022741;28;20248;-88
2021/10/16 02:21:36;;;;;;;5.78;3.15;;;;;;;;;;5022074;28;20208;-88
2021/10/16 02:24:04;;;;;;;8.95;3.03;;;;;;;;;;5025939;28;20205;-88
2021/10/16 02:26:30;;;;;;;14.20;3.00;;;7.40;99.90;;;;;;5022668;28;20200;-87
2021/10/16 02:28:57;;;;;;;11.23;2.72;;;;;;;;;;5021802;28;20762;-87
2021/10/16 02:31:25;;;;;;;8.20;2.88;;;7.40;99.90;;;;;;5028604;28;20208;-87
2021/10/16 02:33:52;;;;;;;10.82;2.60;;;7.40;99.90;;;;;;5020692;28;20621;-87
2021/10/16 02:36:18;;;;;;;5.88;2.25;;;7.40;99.90;;;;;;5020816;28;20208;-87
2021/10/16 02:38:45;;;;;;;19.13;2.60;;;7.60;99.90;;;;;;5020946;28;20204;-87
2021/10/16 02:41:12;;;;;;;10.52;2.95;;;7.30;99.90;;;;;;5032377;28;20220;-89
2021/10/16 02:43:39;;;;;;;6.40;2.40;;;7.30;99.90;;;;;;5027932;28;20189;-88
2021/10/16 02:46:06;;;;;;;7.78;3.50;;;;;;;;;;5024712;28;20296;-87
2021/10/16 02:48:34;;;;;;;5.97;2.50;;;;;;;;;;5024041;28;20221;-87
2021/10/16 02:51:01;;;;;;;14.88;3.60;;;;;;;;;;5019559;28;20220;-87
2021/10/16 02:53:28;;;;;;;6.85;2.10;;;;;;;;;;5020200;28;20201;-87
2021/10/16 02:55:55;;;;;;;5.82;2.60;;;7.30;99.90;;;;;;5019867;28;20580;-87
2021/10/16 02:58:22;;;;;;;8.02;2.10;;;;;;;;;;5025588;28;20200;-86
2021/10/16 03:00:49;;;;;;;8.65;2.53;;;7.30;99.90;;;;;;5029282;28;20324;-87
2021/10/16 03:03:16;;;;;;;10.00;2.65;;;7.60;99.90;;;;;;5029845;28;20255;-87
2021/10/16 03:05:43;;;;;;;8.10;2.92;;;7.50;99.90;;;;;;5025427;28;20205;-88
2021/10/16 03:08:10;;;;;;;10.05;2.03;;;7.50;99.90;;;;;;5024028;28;20221;-85
2021/10/16 03:10:37;;;;;;;7.63;4.07;;;7.90;99.90;;;;;;5031539;28;20224;-86
2021/10/16 03:13:04;;;;;;;11.38;3.05;;;;;;;;;;5034478;28;20209;-87
2021/10/16 03:15:31;;;;;;;8.63;4.10;;;7.50;99.90;;;;;;5036384;28;20335;-88
2021/10/16 03:17:57;;;;;;;8.38;3.05;;;7.50;99.90;;;;;;5022890;28;20205;-87
2021/10/16 03:20:24;;;;;;;12.25;2.55;;;7.50;99.90;;;;;;5017904;28;20229;-87
2021/10/16 03:22:52;;;;;;;14.55;2.92;;;7.40;99.90;;;;;;5019373;28;20255;-87
2021/10/16 03:25:19;;;;;;;6.88;2.17;;;;;;;;;;5022225;28;20267;-87
2021/10/16 03:27:46;;;;;;;13.52;3.10;;;;;;;;;;5021862;28;20255;-87
2021/10/16 03:30:17;;;;;;;8.40;2.65;;;7.50;99.90;;;;;;5021660;28;20252;-86
2021/10/16 03:32:47;;;;;;;6.82;2.55;;;;;;;;;;5021702;28;20212;-85
2021/10/16 03:35:14;;;;;;;15.70;2.85;;;;;;;;;;5021350;28;20542;-86
2021/10/16 03:37:41;;;;;;;14.00;2.70;;;7.70;99.90;;;;;;5028689;28;20209;-87
2021/10/16 03:40:10;;;;;;;5.68;2.67;;;7.40;99.90;;;;;;5025644;28;20766;-86
2021/10/16 03:42:37;;;;;;;19.50;3.17;;;7.50;99.90;;;;;;5038109;28;20201;-85
2021/10/16 03:45:04;;;;;;;7.47;2.72;;;7.50;99.90;;;;;;5030416;28;20216;-87
2021/10/16 03:47:31;;;;;;;9.52;2.92;;;7.50;99.90;;;;;;5025314;28;20248;-86
2021/10/16 03:49:57;;;;;;;9.13;3.28;;;7.50;99.90;;;;;;5025727;28;20229;-86
2021/10/16 03:52:24;;;;;;;10.80;2.70;;;7.60;99.90;;;;;;5026218;28;20296;-87
2021/10/16 03:54:51;;;;;;;10.35;3.17;;;;;;;;;;5025368;28;20205;-87
2021/10/16 03:57:19;;;;;;;10.27;3.00;;;7.40;99.90;;;;;;5025241;28;20439;-88
2021/10/16 03:59:45;;;;;;;10.35;2.97;;;7.60;99.90;;;;;;5035474;28;20499;-87
2021/10/16 04:02:12;;;;;;;5.75;2.78;;;7.60;99.90;;;;;;5039683;28;20235;-88
2021/10/16 04:04:39;;;;;;;14.40;2.92;;;7.80;99.90;;;;;;5039532;28;20235;-89
2021/10/16 04:07:06;;;;;;;3.47;2.22;;;;;;;;;;5039140;28;20205;-89
2021/10/16 04:09:33;;;;;;;6.18;2.40;;;7.70;99.90;;;;;;5040062;28;20232;-87
2021/10/16 04:11:59;;;;;;;17.60;6.55;;;7.80;99.90;;;;;;5037674;28;20201;-89
2021/10/16 04:14:28;;;;;;;33.53;14.32;;;;;;;;;;5040279;28;20181;-89
2021/10/16 04:16:54;;;;;;;40.85;19.65;;;7.90;99.90;;;;;;5040242;28;20185;-89
2021/10/16 04:19:21;;;;;;;31.70;17.65;;;7.80;99.90;;;;;;5038128;28;20205;-87
2021/10/16 04:21:48;;;;;;;30.38;18.13;;;7.60;99.90;;;;;;5038265;28;20209;-88
2021/10/16 04:24:15;;;;;;;12.57;8.93;;;;;;;;;;5038186;28;20197;-88
2021/10/16 04:26:41;;;;;;;18.73;13.13;;;7.70;99.90;;;;;;5033517;28;20259;-86
2021/10/16 04:29:08;;;;;;;17.75;7.90;;;8.10;99.90;;;;;;5039423;28;20475;-89
2021/10/16 04:31:36;;;;;;;15.48;5.97;;;7.60;99.90;;;;;;5028325;28;20301;-87
2021/10/16 04:34:04;;;;;;;8.55;4.38;;;;;;;;;;5025039;28;20228;-87
2021/10/16 04:36:31;;;;;;;10.23;4.00;;;7.90;99.90;;;;;;5024608;28;20209;-87
2021/10/16 04:38:58;;;;;;;9.48;2.65;;;7.80;99.90;;;;;;5027292;28;20225;-87
2021/10/16 04:41:25;;;;;;;14.73;3.75;;;7.90;99.90;;;;;;5024041;28;20236;-87
2021/10/16 04:43:52;;;;;;;12.23;3.13;;;7.80;99.90;;;;;;5019295;28;20210;-87
2021/10/16 04:46:18;;;;;;;6.70;2.40;;;7.90;99.90;;;;;;5020637;28;20231;-87
2021/10/16 04:48:47;;;;;;;7.63;2.80;;;7.60;99.90;;;;;;5020535;28;20661;-87
2021/10/16 04:51:14;;;;;;;12.32;5.95;;;7.80;99.90;;;;;;5021439;28;20209;-86
2021/10/16 04:53:41;;;;;;;24.90;11.15;;;;;;;;;;5026962;28;20232;-86
2021/10/16 04:56:07;;;;;;;10.68;5.65;;;7.90;99.90;;;;;;5023058;28;20205;-86
2021/10/16 04:58:34;;;;;;;7.80;4.40;;;;;;;;;;5021972;28;20231;-86
2021/10/16 05:01:01;;;;;;;7.20;3.50;;;;;;;;;;5022482;28;20442;-86
2021/10/16 05:03:28;;;;;;;6.97;5.50;;;7.80;99.90;;;;;;5027749;28;20472;-87
2021/10/16 05:05:56;;;;;;;13.02;4.13;;;7.80;99.90;;;;;;5025495;28;20213;-87
2021/10/16 05:08:23;;;;;;;6.78;3.40;;;7.70;99.90;;;;;;5023924;28;20209;-87
2021/10/16 05:10:50;;;;;;;10.73;3.75;;;7.80;99.90;;;;;;5023719;28;20220;-86
2021/10/16 05:13:17;;;;;;;10.13;4.40;;;7.80;99.90;;;;;;5024016;28;20256;-87
2021/10/16 05:15:43;;;;;;;14.10;4.80;;;7.90;99.90;;;;;;5023895;28;20232;-87
2021/10/16 05:18:10;;;;;;;6.80;4.32;;;;;;;;;;5023157;28;20443;-86
2021/10/16 05:20:38;;;;;;;10.68;2.75;;;;;;;;;;5023996;28;20221;-86
2021/10/16 05:23:06;;;;;;;5.13;2.75;;;8.00;99.90;;;;;;5028706;28;20209;-86
2021/10/16 05:25:33;;;;;;;12.98;3.53;;;;;;;;;;5027210;28;20439;-86
2021/10/16 05:28:00;;;;;;;9.25;3.00;;;;;;;;;;5026065;28;20209;-86
2021/10/16 05:30:27;;;;;;;8.88;3.03;;;;;;;;;;5022895;28;20731;-86
2021/10/16 05:32:54;;;;;;;9.63;4.13;;;8.30;99.90;;;;;;5028303;28;20218;-86
2021/10/16 05:35:23;;;;;;;7.13;2.72;;;7.40;99.90;;;;;;5032733;28;20273;-87
2021/10/16 05:37:49;;;;;;;8.93;3.20;;;8.40;99.90;;;;;;5025557;28;20268;-86
2021/10/16 05:40:18;;;;;;;7.97;3.08;;;8.20;99.90;;;;;;5017353;28;20279;-86
2021/10/16 05:42:45;;;;;;;6.85;3.13;;;8.20;99.90;;;;;;5018503;28;20213;-87
2021/10/16 05:45:12;;;;;;;6.25;3.00;;;;;;;;;;5020876;28;20197;-86
2021/10/16 05:47:41;;;;;;;11.35;3.88;;;8.00;99.90;;;;;;5024072;28;20584;-87
2021/10/16 05:50:08;;;;;;;9.95;3.60;;;7.70;99.90;;;;;;5023339;28;20256;-88
2021/10/16 05:52:36;;;;;;;10.73;4.90;;;8.00;99.90;;;;;;5022932;28;20623;-87
2021/10/16 05:55:02;;;;;;;9.02;3.25;;;8.10;99.90;;;;;;5021884;28;20296;-87
2021/10/16 05:57:30;;;;;;;8.75;3.17;;;7.90;99.90;;;;;;5022900;28;20201;-87
2021/10/16 05:59:57;;;;;;;9.32;3.20;;;8.00;99.90;;;;;;5055390;23;20205;-82
2021/10/16 06:02:24;;;;;;;11.98;3.85;;;8.00;99.90;;;;;;5037290;28;20204;-83
2021/10/16 06:04:50;;;;;;;5.30;2.90;;;8.00;99.90;;;;;;5037772;28;20232;-82
2021/10/16 06:07:17;;;;;;;14.20;3.75;;;7.90;99.90;;;;;;5033342;28;20427;-82
2021/10/16 06:09:43;;;;;;;7.65;3.10;;;8.10;99.90;;;;;;5037831;28;20236;-82
2021/10/16 06:12:10;;;;;;;16.58;3.80;;;7.90;99.90;;;;;;5033566;28;20656;-84
2021/10/16 06:14:38;;;;;;;9.82;3.88;;;8.00;99.90;;;;;;5025124;28;20205;-83
2021/10/16 06:17:04;;;;;;;9.85;3.10;;;8.00;99.90;;;;;;5035183;28;20197;-84
2021/10/16 06:19:31;;;;;;;5.28;2.40;;;8.00;99.90;;;;;;5020019;28;20231;-83
2021/10/16 06:21:58;;;;;;;7.87;2.60;;;8.00;99.90;;;;;;5029699;28;20271;-83
2021/10/16 06:24:24;;;;;;;9.43;3.40;;;8.10;99.90;;;;;;5020010;28;20454;-84
2021/10/16 06:26:51;;;;;;;7.78;2.70;;;8.10;99.90;;;;;;5018464;28;20204;-83
2021/10/16 06:29:17;;;;;;;8.35;3.35;;;8.20;99.90;;;;;;5017741;28;20264;-84
2021/10/16 06:31:45;;;;;;;11.52;4.20;;;8.30;99.90;;;;;;5018217;28;20240;-84
2021/10/16 06:34:12;;;;;;;7.03;3.00;;;8.20;99.90;;;;;;5019295;28;20240;-82
2021/10/16 06:36:38;;;;;;;12.43;6.45;;;8.20;99.90;;;;;;5022551;28;20475;-81
2021/10/16 06:39:05;;;;;;;12.15;3.60;;;8.30;99.90;;;;;;5020154;28;20201;-82
2021/10/16 06:41:32;;;;;;;10.77;3.72;;;8.30;99.90;;;;;;5030913;28;20212;-83
2021/10/16 06:43:58;;;;;;;9.48;3.20;;;8.30;99.90;;;;;;5033101;28;20201;-84
2021/10/16 06:46:25;;;;;;;8.20;3.37;;;8.40;99.90;;;;;;5027876;28;20212;-82
2021/10/16 06:48:53;;;;;;;11.20;4.73;;;8.40;99.90;;;;;;5031274;28;20960;-82
2021/10/16 06:51:19;;;;;;;9.40;5.10;;;8.40;99.90;;;;;;5031929;28;20469;-82
2021/10/16 06:53:46;;;;;;;8.23;3.80;;;8.40;99.90;;;;;;5033476;28;20449;-85
2021/10/16 06:56:12;;;;;;;6.87;3.80;;;8.40;99.90;;;;;;5019022;28;20452;-83
2021/10/16 06:58:39;;;;;;;10.43;4.05;;;8.40;99.90;;;;;;5018777;28;20427;-83
2021/10/16 07:01:05;;;;;;;7.65;3.10;;;8.40;99.90;;;;;;5023026;28;20236;-81
2021/10/16 07:03:32;;;;;;;11.70;4.23;;;8.30;99.90;;;;;;5033493;28;20209;-82
2021/10/16 07:06:00;;;;;;;6.30;3.80;;;8.30;99.90;;;;;;5033296;28;20480;-82
2021/10/16 07:08:29;;;;;;;17.42;5.20;;;8.40;99.90;;;;;;5023387;28;20455;-83
2021/10/16 07:10:56;;;;;;;8.38;3.58;;;8.40;99.90;;;;;;5035220;28;20239;-83
2021/10/16 07:13:22;;;;;;;10.70;4.37;;;8.30;99.90;;;;;;5040459;28;20216;-84
2021/10/16 07:15:49;;;;;;;6.23;3.50;;;8.30;99.90;;;;;;5041238;28;20431;-84
2021/10/16 07:18:15;;;;;;;11.38;4.65;;;8.40;99.90;;;;;;5040117;28;20514;-84
2021/10/16 07:20:42;;;;;;;8.52;4.50;;;8.30;99.90;;;;;;5037060;28;20225;-84
2021/10/16 07:23:10;;;;;;;7.33;4.33;;;8.50;99.90;;;;;;5027270;28;20296;-84
2021/10/16 07:25:37;;;;;;;9.77;5.10;;;8.30;99.90;;;;;;5023501;28;20448;-83
2021/10/16 07:28:03;;;;;;;7.38;4.20;;;8.20;99.90;;;;;;5022618;28;20422;-83
2021/10/16 07:30:30;;;;;;;12.35;4.82;;;8.20;99.90;;;;;;5022041;28;20684;-84
2021/10/16 07:32:57;;;;;;;12.75;5.00;;;8.50;99.90;;;;;;5023518;28;20209;-84
2021/10/16 07:35:23;;;;;;;10.85;4.85;;;8.20;99.90;;;;;;5037891;28;20189;-81
2021/10/16 07:37:50;;;;;;;12.10;4.45;;;8.20;99.90;;;;;;5034405;28;20232;-83
2021/10/16 07:40:18;;;;;;;14.25;5.70;;;8.20;99.90;;;;;;5035864;28;20217;-82
2021/10/16 07:42:44;;;;;;;11.65;5.30;;;8.20;99.90;;;;;;5034847;28;20232;-82
2021/10/16 07:45:11;;;;;;;9.93;3.83;;;8.30;99.90;;;;;;5028156;28;20255;-83
2021/10/16 07:47:38;;;;;;;8.73;4.40;;;8.30;99.90;;;;;;5028878;28;20259;-82
2021/10/16 07:50:05;;;;;;;10.90;4.67;;;8.40;99.90;;;;;;5022333;28;20263;-84
2021/10/16 07:52:32;;;;;;;10.98;5.13;;;8.50;99.90;;;;;;5024510;28;20458;-82
2021/10/16 07:54:59;;;;;;;13.25;4.22;;;8.50;99.90;;;;;;5024340;28;20694;-84
2021/10/16 07:57:26;;;;;;;9.80;4.32;;;8.60;99.90;;;;;;5021840;28;20209;-84
2021/10/16 07:59:53;;;;;;;5.67;3.77;;;8.70;99.90;;;;;;5022789;28;20233;-83
2021/10/16 08:02:20;;;;;;;12.95;4.85;;;8.70;99.90;;;;;;5026975;28;20399;-81
2021/10/16 08:04:46;;;;;;;9.15;3.80;;;8.70;99.90;;;;;;5033166;28;20707;-84
2021/10/16 08:07:13;;;;;;;6.82;4.20;;;8.70;99.90;;;;;;5032430;28;20209;-82
2021/10/16 08:09:40;;;;;;;14.13;5.07;;;8.80;99.90;;;;;;5021914;28;20225;-85
2021/10/16 08:12:06;;;;;;;15.57;4.20;;;8.90;99.90;;;;;;5021357;28;20795;-83
2021/10/16 08:14:34;;;;;;;10.60;3.97;;;9.00;99.90;;;;;;5021434;28;20449;-82
2021/10/16 08:17:02;;;;;;;11.80;4.60;;;9.10;99.90;;;;;;5021990;28;20491;-83
2021/10/16 08:19:29;;;;;;;10.30;5.03;;;9.20;99.90;;;;;;5023430;28;20465;-84
2021/10/16 08:21:56;;;;;;;11.93;3.77;;;9.20;99.90;;;;;;5027941;28;20481;-83
2021/10/16 08:24:22;;;;;;;12.57;5.00;;;9.30;99.90;;;;;;5031154;28;20922;-83
2021/10/16 08:26:49;;;;;;;15.17;4.47;;;9.50;99.90;;;;;;5031707;28;20498;-82
2021/10/16 08:29:15;;;;;;;12.83;4.93;;;9.70;99.90;;;;;;5032284;28;20418;-82
2021/10/16 08:31:43;;;;;;;11.70;3.43;;;9.70;99.90;;;;;;5029046;28;20440;-84
2021/10/16 08:34:10;;;;;;;10.67;3.27;;;9.70;99.90;;;;;;5024036;28;20435;-84
2021/10/16 08:36:38;;;;;;;4.83;2.73;;;9.80;99.90;;;;;;5021235;28;20451;-84
2021/10/16 08:39:05;;;;;;;8.57;3.20;;;9.60;99.90;;;;;;5020512;28;20530;-83
2021/10/16 08:41:32;;;;;;;7.10;3.57;;;9.80;99.90;;;;;;5021403;28;21089;-84
2021/10/16 08:43:58;;;;;;;10.23;3.10;;;10.00;99.90;;;;;;5021509;28;20476;-84
2021/10/16 08:46:26;;;;;;;6.17;3.13;;;10.10;99.90;;;;;;5022135;28;20498;-84
2021/10/16 08:48:55;;;;;;;11.67;3.90;;;10.10;99.90;;;;;;5022543;28;20494;-84
2021/10/16 08:51:22;;;;;;;7.10;3.33;;;10.40;99.90;;;;;;5022572;28;20487;-83
2021/10/16 08:53:48;;;;;;;9.67;4.40;;;10.10;99.90;;;;;;5022387;28;20938;-83
2021/10/16 08:56:15;;;;;;;12.47;3.77;;;10.10;99.90;;;;;;5026109;28;20415;-83
2021/10/16 08:58:41;;;;;;;3.90;2.80;;;10.20;99.90;;;;;;5034532;28;20446;-82
2021/10/16 09:01:08;;;;;;;17.70;3.40;;;10.20;99.90;;;;;;5034874;28;20501;-82
2021/10/16 09:03:36;;;;;;;10.53;2.47;;;10.20;99.90;;;;;;5035088;28;20471;-82
2021/10/16 09:06:11;;;;;;;8.70;2.60;;;10.30;99.90;;;;;;5026592;28;20514;-83
2021/10/16 09:08:40;;;;;;;9.13;3.63;;;10.70;99.90;;;;;;5022417;28;20440;-83
2021/10/16 09:11:27;;;;;;;4.30;2.60;;;10.40;99.90;;;;;;5026256;28;20466;-83
2021/10/16 09:13:57;;;;;;;6.27;3.07;;;10.40;99.90;;;;;;5032333;28;20439;-82
2021/10/16 09:16:39;;;;;;;10.00;3.00;;;10.40;99.90;;;;;;5030093;28;20428;-83
2021/10/16 09:19:11;;;;;;;5.97;2.40;;;10.30;99.90;;;;;;5022814;28;20437;-83
2021/10/16 09:21:42;;;;;;;9.03;3.20;;;10.60;99.90;;;;;;5021255;28;20428;-83
2021/10/16 09:24:23;;;;;;;3.27;2.27;;;10.60;99.90;;;;;;5021222;28;20407;-85
2021/10/16 09:26:52;;;;;;;6.37;3.33;;;10.70;99.90;;;;;;5022723;28;20441;-83
2021/10/16 09:29:20;;;;;;;3.63;2.63;;;10.80;99.90;;;;;;5031097;28;20476;-82
2021/10/16 09:31:48;;;;;;;25.13;8.40;;;10.40;99.90;;;;;;5030634;28;20486;-84
2021/10/16 09:34:23;;;;;;;9.93;5.87;;;10.90;99.90;;;;;;5024124;28;20506;-83
2021/10/16 09:36:51;;;;;;;7.90;2.63;;;10.70;99.90;;;;;;5038862;28;20423;-82
2021/10/16 09:39:19;;;;;;;6.37;2.40;;;10.80;99.90;;;;;;5039495;28;20527;-82
2021/10/16 09:41:47;;;;;;;4.17;3.57;;;10.80;99.90;;;;;;5035351;28;20407;-82
2021/10/16 09:44:26;;;;;;;10.40;2.77;;;10.80;99.90;;;;;;5031517;28;20448;-82
2021/10/16 09:47:08;;;;;;;7.93;2.37;;;11.00;99.90;;;;;;5033768;28;20451;-83
2021/10/16 09:49:37;;;;;;;4.97;2.43;;;11.10;99.90;;;;;;5034984;28;20475;-82
2021/10/16 09:52:11;;;;;;;4.30;1.90;;;11.30;99.90;;;;;;5036788;28;20410;-84
2021/10/16 09:54:39;;;;;;;5.40;2.27;;;11.30;99.90;;;;;;5034103;28;20424;-82
2021/10/16 09:57:07;;;;;;;9.60;2.27;;;11.40;99.90;;;;;;5035027;28;20432;-84
2021/10/16 09:59:35;;;;;;;9.33;2.20;;;11.40;99.90;;;;;;5030491;28;20454;-85
2021/10/16 10:02:03;;;;;;;5.23;2.20;;;11.30;99.90;;;;;;5022908;28;20861;-84
2021/10/16 10:04:32;;;;;;;6.30;2.13;;;11.30;99.90;;;;;;5022009;28;20465;-84
2021/10/16 10:06:59;;;;;;;4.37;2.20;;;11.30;99.90;;;;;;5021763;28;20456;-84
2021/10/16 10:09:29;;;;;;;3.00;1.10;;;11.40;99.90;;;;;;5022567;28;20464;-84
2021/10/16 10:11:56;;;;;;;4.67;2.20;;;11.40;99.90;;;;;;5030865;28;20476;-82
2021/10/16 10:14:24;;;;;;;7.47;1.93;;;11.40;99.90;;;;;;5034755;28;20444;-82
2021/10/16 10:16:52;;;;;;;4.93;2.37;;;11.50;99.90;;;;;;5034882;28;20452;-82
2021/10/16 10:19:21;;;;;;;7.60;2.33;;;11.40;99.90;;;;;;5036355;28;20442;-81
2021/10/16 10:21:48;;;;;;;3.83;1.83;;;11.50;99.90;;;;;;5037722;28;20494;-82
2021/10/16 10:24:15;;;;;;;4.47;2.23;;;11.60;99.90;;;;;;5034185;28;20452;-82
2021/10/16 10:26:44;;;;;;;2.07;1.87;;;11.70;99.90;;;;;;5034395;28;20498;-82
2021/10/16 10:29:14;;;;;;;5.47;1.23;;;11.60;99.90;;;;;;5031384;28;20451;-83
2021/10/16 10:31:55;;;;;;;2.23;1.93;;;11.80;99.90;;;;;;5021790;28;20845;-84
2021/10/16 10:34:24;;;;;;;4.77;1.73;;;11.80;99.90;;;;;;5021955;28;20854;-84
2021/10/16 10:36:53;;;;;;;4.03;1.70;;;11.90;99.90;;;;;;5029032;28;20456;-82
2021/10/16 10:39:39;;;;;;;4.13;1.70;;;11.90;99.90;;;;;;5033118;28;20464;-82
2021/10/16 10:42:45;;;;;;;5.67;1.90;;;12.00;99.90;;;;;;5029552;28;20444;-83
2021/10/16 10:45:35;;;;;;;4.70;2.57;;;12.00;99.90;;;;;;5027077;28;20420;-84
2021/10/16 10:48:14;;;;;;;4.77;2.13;;;12.00;99.90;;;;;;5028497;28;20461;-83
2021/10/16 10:50:43;;;;;;;4.70;1.73;;;12.00;99.90;;;;;;5027345;28;20466;-83
2021/10/16 10:53:12;;;;;;;4.23;1.80;;;12.00;99.90;;;;;;5025861;28;20426;-83
2021/10/16 10:55:52;;;;;;;4.20;2.10;;;11.90;99.90;;;;;;5026147;28;20454;-84
2021/10/16 10:58:20;;;;;;;1.37;1.07;;;11.90;99.90;;;;;;5026950;28;20483;-84
2021/10/16 11:00:49;;;;;;;4.78;1.88;;;11.60;99.90;;;;;;5025759;28;20508;-85
2021/10/16 11:03:44;;;;;;;2.92;1.60;;;11.80;99.90;;;;;;5023093;28;20807;-84
2021/10/16 11:06:20;;;;;;;3.97;1.55;;;11.80;99.90;;;;;;5022549;28;20498;-84
2021/10/16 11:08:49;;;;;;;3.55;1.20;;;11.80;99.90;;;;;;5024448;28;20447;-84
2021/10/16 11:11:16;;;;;;;3.20;1.40;;;11.90;99.90;;;;;;5023755;28;20229;-84
2021/10/16 11:13:43;;;;;;;2.30;1.20;;;11.80;99.90;;;;;;5023442;28;20444;-84
2021/10/16 11:16:11;;;;;;;3.10;2.10;;;11.80;99.90;;;;;;5022824;28;20486;-83
2021/10/16 11:18:37;;;;;;;3.00;1.40;;;11.80;99.90;;;;;;5023884;28;20859;-83
2021/10/16 11:21:06;;;;;;;5.13;1.40;;;11.70;99.90;;;;;;5027580;28;20491;-84
2021/10/16 11:23:32;;;;;;;4.20;1.43;;;;;;;;;;5028252;28;20455;-83
2021/10/16 11:26:02;;;;;;;4.50;1.40;;;11.90;99.90;;;;;;5028874;28;20452;-84
2021/10/16 11:28:30;;;;;;;2.50;1.10;;;11.90;99.90;;;;;;5032101;28;20440;-82
2021/10/16 11:30:58;;;;;;;5.77;1.50;;;12.00;99.90;;;;;;5030035;28;20866;-82
2021/10/16 11:33:28;;;;;;;5.03;1.37;;;12.10;99.90;;;;;;5036482;28;20456;-82
2021/10/16 11:35:56;;;;;;;3.97;1.37;;;12.10;99.90;;;;;;5039806;28;20435;-82
2021/10/16 11:38:25;;;;;;;3.33;1.63;;;12.20;99.90;;;;;;5039577;28;20439;-79
2021/10/16 11:40:52;;;;;;;3.77;1.43;;;12.40;99.90;;;;;;5041120;28;20466;-83
2021/10/16 11:43:21;;;;;;;3.30;1.70;;;12.40;99.90;;;;;;5039121;28;20430;-83
2021/10/16 11:45:49;;;;;;;8.57;1.60;;;12.50;99.90;;;;;;5038458;28;20419;-83
2021/10/16 11:48:18;;;;;;;4.10;2.07;;;12.50;99.90;;;;;;5039552;28;20493;-84
2021/10/16 11:50:48;;;;;;;4.40;1.30;;;12.50;99.90;;;;;;5038877;28;20488;-84
2021/10/16 11:53:17;;;;;;;3.60;1.83;;;12.60;99.90;;;;;;5031911;28;20471;-84
2021/10/16 11:55:45;;;;;;;5.23;1.47;;;12.50;99.90;;;;;;5032943;28;20475;-84
2021/10/16 11:58:15;;;;;;;2.10;1.70;;;12.50;99.90;;;;;;5034107;28;20425;-84
2021/10/16 12:00:43;;;;;;;8.70;2.10;;;;;;;;;;5041957;23;20523;-88
2021/10/16 12:03:14;;;;;;;6.27;2.80;;;12.30;99.90;;;;;;5033005;28;20498;-86
2021/10/16 12:05:42;;;;;;;5.00;1.97;;;12.30;99.90;;;;;;5031291;28;20418;-87
2021/10/16 12:08:16;;;;;;;2.43;1.37;;;12.30;99.90;;;;;;5026747;28;20426;-88
2021/10/16 12:10:48;;;;;;;2.90;1.70;;;12.30;99.90;;;;;;5030854;28;20494;-87
2021/10/16 12:13:16;;;;;;;3.03;1.87;;;12.20;99.90;;;;;;5033856;28;20451;-87
2021/10/16 12:15:45;;;;;;;4.37;2.27;;;12.30;99.90;;;;;;5028388;28;20483;-87
2021/10/16 12:18:22;;;;;;;3.10;1.60;;;12.30;99.90;;;;;;5027785;28;20455;-87
2021/10/16 12:20:51;;;;;;;2.10;1.33;;;12.40;99.90;;;;;;5026047;28;20482;-87
2021/10/16 12:23:20;;;;;;;7.10;2.63;;;;;;;;;;5025433;28;20840;-87
2021/10/16 12:25:57;;;;;;;5.83;2.20;;;12.50;99.90;;;;;;5026268;28;20444;-87
2021/10/16 12:28:26;;;;;;;2.17;1.87;;;12.40;99.90;;;;;;5026929;28;20472;-87
2021/10/16 12:31:10;;;;;;;3.83;2.10;;;12.50;99.90;;;;;;5025906;28;20462;-87
2021/10/16 12:33:57;;;;;;;5.27;1.77;;;12.60;99.90;;;;;;5025929;28;20872;-87
2021/10/16 12:36:25;;;;;;;8.30;1.93;;;12.50;99.90;;;;;;5026365;28;20427;-88
2021/10/16 12:38:54;;;;;;;4.57;2.77;;;12.50;99.90;;;;;;5025095;28;20513;-88
2021/10/16 12:41:26;;;;;;;5.57;2.70;;;12.00;99.90;;;;;;5024040;28;20464;-88
2021/10/16 12:43:53;;;;;;;4.77;2.47;;;12.40;99.90;;;;;;5146313;22;20474;-86
2021/10/16 12:46:27;;;;;;;3.17;2.20;;;12.40;99.90;;;;;;5025509;28;20423;-88
2021/10/16 12:48:58;;;;;;;6.00;1.80;;;12.30;99.90;;;;;;5025471;28;20417;-87
2021/10/16 12:51:42;;;;;;;3.43;1.77;;;12.40;99.90;;;;;;5029992;28;20495;-86
2021/10/16 12:54:11;;;;;;;1.40;1.30;;;;;;;;;;5032994;28;20454;-87
2021/10/16 12:56:38;;;;;;;3.53;2.10;;;12.40;99.90;;;;;;5049013;23;20466;-83
2021/10/16 12:59:04;;;;;;;4.60;1.97;;;12.30;99.90;;;;;;5022480;28;20495;-84
2021/10/16 13:01:32;;;;;;;4.90;1.60;;;12.10;99.90;;;;;;5025342;28;20867;-85
2021/10/16 13:03:58;;;;;;;2.30;1.77;;;12.30;99.90;;;;;;5029259;28;20997;-83
2021/10/16 13:06:25;;;;;;;3.80;2.07;;;12.40;99.90;;;;;;5024098;28;20525;-84
2021/10/16 13:08:51;;;;;;;4.40;2.13;;;12.40;99.90;;;;;;5023395;28;20471;-83
2021/10/16 13:11:19;;;;;;;3.47;2.43;;;12.40;99.90;;;;;;5022414;28;20506;-83
2021/10/16 13:13:46;;;;;;;6.73;2.37;;;12.40;99.90;;;;;;5020548;28;20478;-83